sensor_id;sensor_type;location;lat;lon;timestamp;pressure;altitude;pressure_sealevel;temperature;humidity
38303;BME280;24103;42.454;27.400;2023-05-21T00:02:15;100367.91;;;17.07;100.00
38303;BME280;24103;42.454;27.400;2023-05-21T00:04:44;100366.09;;;17.08;100.00
38303;BME280;24103;42.454;27.400;2023-05-21T00:07:10;100371.19;;;17.11;100.00
38303;BME280;24103;42.454;27.400;2023-05-21T00:09:37;100360.91;;;17.06;100.00
38303;BME280;24103;42.454;27.400;2023-05-21T00:12:07;100368.34;;;17.03;100.00
38303;BME280;24103;42.454;27.400;2023-05-21T00:14:33;100361.88;;;17.05;100.00
38303;BME280;24103;42.454;27.400;2023-05-21T00:16:58;100355.72;;;17.15;100.00
38303;BME280;24103;42.454;27.400;2023-05-21T00:19:24;100347.84;;;17.13;100.00
38303;BME280;24103;42.454;27.400;2023-05-21T00:21:51;100344.22;;;17.24;100.00
38303;BME280;24103;42.454;27.400;2023-05-21T00:24:17;100346.03;;;17.23;100.00
38303;BME280;24103;42.454;27.400;2023-05-21T00:26:42;100346.03;;;17.23;100.00
38303;BME280;24103;42.454;27.400;2023-05-21T00:29:07;100337.50;;;17.29;100.00
38303;BME280;24103;42.454;27.400;2023-05-21T00:31:33;100335.53;;;17.31;100.00
38303;BME280;24103;42.454;27.400;2023-05-21T00:33:58;100323.72;;;17.34;100.00
38303;BME280;24103;42.454;27.400;2023-05-21T00:36:24;100328.78;;;17.37;100.00
38303;BME280;24103;42.454;27.400;2023-05-21T00:38:50;100326.56;;;17.42;100.00
38303;BME280;24103;42.454;27.400;2023-05-21T00:41:16;100340.03;;;17.41;100.00
38303;BME280;24103;42.454;27.400;2023-05-21T00:43:42;100337.91;;;17.35;100.00
38303;BME280;24103;42.454;27.400;2023-05-21T00:46:19;100334.81;;;17.29;100.00
38303;BME280;24103;42.454;27.400;2023-05-21T00:48:46;100322.97;;;17.22;100.00
38303;BME280;24103;42.454;27.400;2023-05-21T00:51:13;100330.28;;;17.20;100.00
38303;BME280;24103;42.454;27.400;2023-05-21T00:53:39;100320.63;;;17.19;100.00
38303;BME280;24103;42.454;27.400;2023-05-21T00:56:05;100336.03;;;17.16;100.00
38303;BME280;24103;42.454;27.400;2023-05-21T00:58:32;100324.94;;;17.10;100.00
38303;BME280;24103;42.454;27.400;2023-05-21T01:00:58;100328.72;;;17.08;100.00
38303;BME280;24103;42.454;27.400;2023-05-21T01:03:29;100310.97;;;16.97;100.00
38303;BME280;24103;42.454;27.400;2023-05-21T01:05:54;100305.47;;;16.89;100.00
38303;BME280;24103;42.454;27.400;2023-05-21T01:08:24;100299.13;;;16.80;100.00
38303;BME280;24103;42.454;27.400;2023-05-21T01:10:51;100297.59;;;16.87;100.00
38303;BME280;24103;42.454;27.400;2023-05-21T01:13:19;100302.69;;;16.90;100.00
38303;BME280;24103;42.454;27.400;2023-05-21T01:15:48;100297.75;;;16.86;100.00
38303;BME280;24103;42.454;27.400;2023-05-21T01:18:14;100292.72;;;16.92;100.00
38303;BME280;24103;42.454;27.400;2023-05-21T01:20:40;100288.78;;;16.87;100.00
38303;BME280;24103;42.454;27.400;2023-05-21T01:23:07;100282.97;;;16.82;100.00
38303;BME280;24103;42.454;27.400;2023-05-21T01:25:33;100287.00;;;16.76;100.00
38303;BME280;24103;42.454;27.400;2023-05-21T01:27:59;100287.69;;;16.68;100.00
38303;BME280;24103;42.454;27.400;2023-05-21T01:30:24;100284.16;;;16.68;100.00
38303;BME280;24103;42.454;27.400;2023-05-21T01:35:48;100269.03;;;16.68;100.00
38303;BME280;24103;42.454;27.400;2023-05-21T01:38:30;100263.13;;;16.74;100.00
38303;BME280;24103;42.454;27.400;2023-05-21T01:41:02;100264.53;;;16.69;100.00
38303;BME280;24103;42.454;27.400;2023-05-21T01:43:32;100264.22;;;16.62;100.00
38303;BME280;24103;42.454;27.400;2023-05-21T01:45:59;100265.19;;;16.61;100.00
38303;BME280;24103;42.454;27.400;2023-05-21T01:48:27;100257.44;;;16.58;100.00
38303;BME280;24103;42.454;27.400;2023-05-21T01:50:54;100259.59;;;16.64;100.00
38303;BME280;24103;42.454;27.400;2023-05-21T01:53:22;100254.25;;;16.64;100.00
38303;BME280;24103;42.454;27.400;2023-05-21T01:55:47;100263.13;;;16.65;100.00
38303;BME280;24103;42.454;27.400;2023-05-21T01:58:13;100268.47;;;16.65;100.00
38303;BME280;24103;42.454;27.400;2023-05-21T02:00:40;100268.16;;;16.68;100.00
38303;BME280;24103;42.454;27.400;2023-05-21T02:03:06;100270.00;;;16.67;100.00
38303;BME280;24103;42.454;27.400;2023-05-21T02:05:32;100266.09;;;16.71;100.00
38303;BME280;24103;42.454;27.400;2023-05-21T02:07:57;100273.66;;;16.76;100.00
38303;BME280;24103;42.454;27.400;2023-05-21T02:10:24;100269.91;;;16.79;100.00
38303;BME280;24103;42.454;27.400;2023-05-21T02:12:50;100281.28;;;16.81;100.00
38303;BME280;24103;42.454;27.400;2023-05-21T02:15:15;100278.03;;;16.77;100.00
38303;BME280;24103;42.454;27.400;2023-05-21T02:17:47;100277.31;;;16.75;100.00
38303;BME280;24103;42.454;27.400;2023-05-21T02:20:15;100279.81;;;16.67;100.00
38303;BME280;24103;42.454;27.400;2023-05-21T02:22:48;100285.13;;;16.57;100.00
38303;BME280;24103;42.454;27.400;2023-05-21T02:25:15;100282.38;;;16.37;100.00
38303;BME280;24103;42.454;27.400;2023-05-21T02:27:41;100289.59;;;16.26;100.00
38303;BME280;24103;42.454;27.400;2023-05-21T02:30:09;100287.13;;;16.13;100.00
38303;BME280;24103;42.454;27.400;2023-05-21T02:32:35;100298.13;;;15.98;100.00
38303;BME280;24103;42.454;27.400;2023-05-21T02:35:02;100305.34;;;15.87;100.00
38303;BME280;24103;42.454;27.400;2023-05-21T02:37:28;100300.91;;;15.76;100.00
38303;BME280;24103;42.454;27.400;2023-05-21T02:39:54;100307.94;;;15.65;100.00
38303;BME280;24103;42.454;27.400;2023-05-21T02:42:23;100304.72;;;15.51;100.00
38303;BME280;24103;42.454;27.400;2023-05-21T02:44:49;100313.38;;;15.43;100.00
38303;BME280;24103;42.454;27.400;2023-05-21T02:47:16;100314.81;;;15.36;100.00
38303;BME280;24103;42.454;27.400;2023-05-21T02:49:41;100303.13;;;15.27;100.00
38303;BME280;24103;42.454;27.400;2023-05-21T02:52:06;100307.13;;;15.21;100.00
38303;BME280;24103;42.454;27.400;2023-05-21T02:54:32;100311.34;;;15.24;100.00
38303;BME280;24103;42.454;27.400;2023-05-21T02:56:57;100302.53;;;15.23;100.00
38303;BME280;24103;42.454;27.400;2023-05-21T02:59:23;100300.44;;;15.27;100.00
38303;BME280;24103;42.454;27.400;2023-05-21T03:01:48;100307.84;;;15.23;100.00
38303;BME280;24103;42.454;27.400;2023-05-21T03:04:14;100317.66;;;15.23;100.00
38303;BME280;24103;42.454;27.400;2023-05-21T03:06:55;100316.53;;;15.25;100.00
38303;BME280;24103;42.454;27.400;2023-05-21T03:09:21;100321.25;;;15.33;100.00
38303;BME280;24103;42.454;27.400;2023-05-21T03:11:47;100321.97;;;15.35;100.00
38303;BME280;24103;42.454;27.400;2023-05-21T03:14:12;100324.34;;;15.50;100.00
38303;BME280;24103;42.454;27.400;2023-05-21T03:16:38;100316.25;;;15.72;100.00
38303;BME280;24103;42.454;27.400;2023-05-21T03:19:09;100314.69;;;15.81;100.00
38303;BME280;24103;42.454;27.400;2023-05-21T03:21:35;100314.16;;;15.87;100.00
38303;BME280;24103;42.454;27.400;2023-05-21T03:24:02;100316.19;;;15.95;100.00
38303;BME280;24103;42.454;27.400;2023-05-21T03:26:28;100308.84;;;16.29;100.00
38303;BME280;24103;42.454;27.400;2023-05-21T03:28:56;100307.91;;;16.71;100.00
38303;BME280;24103;42.454;27.400;2023-05-21T03:31:25;100306.72;;;17.45;100.00
38303;BME280;24103;42.454;27.400;2023-05-21T03:33:51;100307.03;;;18.48;100.00
38303;BME280;24103;42.454;27.400;2023-05-21T03:36:17;100309.31;;;18.90;100.00
38303;BME280;24103;42.454;27.400;2023-05-21T03:38:43;100308.31;;;19.37;100.00
38303;BME280;24103;42.454;27.400;2023-05-21T03:41:09;100300.78;;;20.38;100.00
38303;BME280;24103;42.454;27.400;2023-05-21T03:43:35;100288.97;;;21.51;100.00
38303;BME280;24103;42.454;27.400;2023-05-21T03:46:00;100290.50;;;21.95;100.00
38303;BME280;24103;42.454;27.400;2023-05-21T03:48:26;100285.63;;;21.82;100.00
38303;BME280;24103;42.454;27.400;2023-05-21T03:50:51;100280.91;;;21.51;100.00
38303;BME280;24103;42.454;27.400;2023-05-21T03:53:17;100289.06;;;21.16;100.00
38303;BME280;24103;42.454;27.400;2023-05-21T03:55:42;100297.38;;;20.89;100.00
38303;BME280;24103;42.454;27.400;2023-05-21T03:58:08;100297.47;;;20.71;100.00
38303;BME280;24103;42.454;27.400;2023-05-21T04:00:35;100292.31;;;20.77;99.74
38303;BME280;24103;42.454;27.400;2023-05-21T04:03:02;100292.09;;;21.22;100.00
38303;BME280;24103;42.454;27.400;2023-05-21T04:05:28;100273.47;;;23.46;94.85
38303;BME280;24103;42.454;27.400;2023-05-21T04:07:53;100242.63;;;25.92;78.06
38303;BME280;24103;42.454;27.400;2023-05-21T04:10:19;100226.84;;;28.01;63.52
38303;BME280;24103;42.454;27.400;2023-05-21T04:12:45;100194.91;;;29.64;51.50
38303;BME280;24103;42.454;27.400;2023-05-21T04:15:13;100186.84;;;31.29;46.36
38303;BME280;24103;42.454;27.400;2023-05-21T04:17:42;100171.88;;;32.38;42.60
38303;BME280;24103;42.454;27.400;2023-05-21T04:20:10;100170.06;;;33.30;41.00
38303;BME280;24103;42.454;27.400;2023-05-21T04:22:36;100175.59;;;34.47;37.65
38303;BME280;24103;42.454;27.400;2023-05-21T04:25:02;100154.88;;;34.83;34.79
38303;BME280;24103;42.454;27.400;2023-05-21T04:27:27;100143.88;;;35.16;33.73
38303;BME280;24103;42.454;27.400;2023-05-21T04:29:52;100152.25;;;35.69;33.79
38303;BME280;24103;42.454;27.400;2023-05-21T04:32:18;100140.06;;;36.86;32.01
38303;BME280;24103;42.454;27.400;2023-05-21T04:34:45;100140.25;;;37.97;30.66
38303;BME280;24103;42.454;27.400;2023-05-21T04:37:10;100146.09;;;38.96;28.75
38303;BME280;24103;42.454;27.400;2023-05-21T04:39:36;100130.78;;;39.91;27.50
38303;BME280;24103;42.454;27.400;2023-05-21T04:42:01;100127.19;;;40.58;25.65
38303;BME280;24103;42.454;27.400;2023-05-21T04:44:28;100116.00;;;41.01;24.29
38303;BME280;24103;42.454;27.400;2023-05-21T04:46:54;100111.94;;;41.73;23.78
38303;BME280;24103;42.454;27.400;2023-05-21T04:49:21;100118.66;;;42.09;22.91
38303;BME280;24103;42.454;27.400;2023-05-21T04:51:47;100114.00;;;41.21;23.00
38303;BME280;24103;42.454;27.400;2023-05-21T04:54:13;100126.19;;;40.87;23.32
38303;BME280;24103;42.454;27.400;2023-05-21T04:56:39;100124.66;;;40.43;23.53
38303;BME280;24103;42.454;27.400;2023-05-21T04:59:04;100124.53;;;40.29;24.01
38303;BME280;24103;42.454;27.400;2023-05-21T05:01:31;100126.22;;;40.49;24.12
38303;BME280;24103;42.454;27.400;2023-05-21T05:03:57;100124.28;;;40.49;23.82
38303;BME280;24103;42.454;27.400;2023-05-21T05:06:22;100132.34;;;40.65;23.74
38303;BME280;24103;42.454;27.400;2023-05-21T05:08:50;100119.28;;;41.03;23.51
38303;BME280;24103;42.454;27.400;2023-05-21T05:11:15;100123.72;;;41.18;22.84
38303;BME280;24103;42.454;27.400;2023-05-21T05:13:41;100123.66;;;41.70;22.73
38303;BME280;24103;42.454;27.400;2023-05-21T05:16:07;100127.91;;;42.04;22.71
38303;BME280;24103;42.454;27.400;2023-05-21T05:18:33;100129.50;;;42.61;21.46
38303;BME280;24103;42.454;27.400;2023-05-21T05:20:59;100124.09;;;43.01;20.66
38303;BME280;24103;42.454;27.400;2023-05-21T05:23:25;100132.56;;;43.50;20.02
38303;BME280;24103;42.454;27.400;2023-05-21T05:25:50;100123.63;;;43.70;19.71
38303;BME280;24103;42.454;27.400;2023-05-21T05:28:16;100126.19;;;43.89;19.71
38303;BME280;24103;42.454;27.400;2023-05-21T05:30:42;100121.66;;;44.28;19.12
38303;BME280;24103;42.454;27.400;2023-05-21T05:33:07;100123.56;;;44.02;19.56
38303;BME280;24103;42.454;27.400;2023-05-21T05:35:32;100115.78;;;44.21;19.09
38303;BME280;24103;42.454;27.400;2023-05-21T05:37:58;100118.06;;;44.37;19.08
38303;BME280;24103;42.454;27.400;2023-05-21T05:40:24;100123.03;;;44.57;18.90
38303;BME280;24103;42.454;27.400;2023-05-21T05:42:50;100128.41;;;44.80;18.76
38303;BME280;24103;42.454;27.400;2023-05-21T05:45:17;100127.75;;;44.83;18.19
38303;BME280;24103;42.454;27.400;2023-05-21T05:47:43;100118.66;;;45.30;17.68
38303;BME280;24103;42.454;27.400;2023-05-21T05:50:08;100112.88;;;45.35;18.25
38303;BME280;24103;42.454;27.400;2023-05-21T05:52:34;100122.13;;;45.65;17.82
38303;BME280;24103;42.454;27.400;2023-05-21T05:54:59;100115.09;;;45.89;17.63
38303;BME280;24103;42.454;27.400;2023-05-21T05:57:25;100129.25;;;46.13;17.37
38303;BME280;24103;42.454;27.400;2023-05-21T05:59:50;100131.25;;;46.13;17.17
38303;BME280;24103;42.454;27.400;2023-05-21T06:02:16;100135.69;;;46.35;17.26
38303;BME280;24103;42.454;27.400;2023-05-21T06:04:41;100139.25;;;46.99;17.53
38303;BME280;24103;42.454;27.400;2023-05-21T06:07:07;100134.03;;;47.80;16.23
38303;BME280;24103;42.454;27.400;2023-05-21T06:09:32;100133.06;;;47.63;15.59
38303;BME280;24103;42.454;27.400;2023-05-21T06:11:58;100132.63;;;47.61;15.96
38303;BME280;24103;42.454;27.400;2023-05-21T06:14:23;100137.16;;;47.54;15.80
38303;BME280;24103;42.454;27.400;2023-05-21T06:16:49;100130.59;;;48.64;15.60
38303;BME280;24103;42.454;27.400;2023-05-21T06:19:14;100125.47;;;49.11;14.90
38303;BME280;24103;42.454;27.400;2023-05-21T06:21:40;100118.88;;;49.19;14.80
38303;BME280;24103;42.454;27.400;2023-05-21T06:24:05;100113.84;;;47.62;14.85
38303;BME280;24103;42.454;27.400;2023-05-21T06:26:31;100127.16;;;47.65;14.42
38303;BME280;24103;42.454;27.400;2023-05-21T06:28:56;100121.41;;;47.61;14.43
38303;BME280;24103;42.454;27.400;2023-05-21T06:31:21;100114.00;;;47.66;14.29
38303;BME280;24103;42.454;27.400;2023-05-21T06:33:48;100120.44;;;48.31;14.87
38303;BME280;24103;42.454;27.400;2023-05-21T06:36:14;100105.09;;;48.53;13.88
38303;BME280;24103;42.454;27.400;2023-05-21T06:38:40;100106.19;;;48.93;13.24
38303;BME280;24103;42.454;27.400;2023-05-21T06:41:07;100104.81;;;48.87;13.59
38303;BME280;24103;42.454;27.400;2023-05-21T06:43:32;100098.13;;;48.92;13.83
38303;BME280;24103;42.454;27.400;2023-05-21T06:45:58;100111.44;;;49.11;13.28
38303;BME280;24103;42.454;27.400;2023-05-21T06:48:23;100092.91;;;49.38;13.05
38303;BME280;24103;42.454;27.400;2023-05-21T06:50:49;100093.06;;;48.97;13.08
38303;BME280;24103;42.454;27.400;2023-05-21T06:53:14;100090.19;;;48.37;12.85
38303;BME280;24103;42.454;27.400;2023-05-21T06:55:41;100088.69;;;48.27;12.79
38303;BME280;24103;42.454;27.400;2023-05-21T06:58:09;100088.78;;;47.90;12.26
38303;BME280;24103;42.454;27.400;2023-05-21T07:00:35;100097.38;;;47.11;13.47
38303;BME280;24103;42.454;27.400;2023-05-21T07:03:00;100090.75;;;47.28;13.28
38303;BME280;24103;42.454;27.400;2023-05-21T07:05:26;100092.75;;;47.52;13.00
38303;BME280;24103;42.454;27.400;2023-05-21T07:07:51;100104.06;;;47.80;13.21
38303;BME280;24103;42.454;27.400;2023-05-21T07:10:17;100089.16;;;46.94;12.86
38303;BME280;24103;42.454;27.400;2023-05-21T07:12:42;100106.25;;;45.01;14.62
38303;BME280;24103;42.454;27.400;2023-05-21T07:15:08;100105.63;;;44.78;14.19
38303;BME280;24103;42.454;27.400;2023-05-21T07:17:34;100108.88;;;45.06;14.42
38303;BME280;24103;42.454;27.400;2023-05-21T07:19:59;100107.09;;;46.17;13.62
38303;BME280;24103;42.454;27.400;2023-05-21T07:22:25;100095.97;;;44.49;14.12
38303;BME280;24103;42.454;27.400;2023-05-21T07:24:50;100107.75;;;43.71;15.92
38303;BME280;24103;42.454;27.400;2023-05-21T07:27:16;100102.41;;;45.32;14.58
38303;BME280;24103;42.454;27.400;2023-05-21T07:29:41;100100.53;;;45.83;14.20
38303;BME280;24103;42.454;27.400;2023-05-21T07:32:06;100119.94;;;43.92;15.11
38303;BME280;24103;42.454;27.400;2023-05-21T07:34:32;100109.75;;;42.12;16.22
38303;BME280;24103;42.454;27.400;2023-05-21T07:36:57;100119.81;;;42.58;17.03
38303;BME280;24103;42.454;27.400;2023-05-21T07:39:23;100115.25;;;43.30;15.42
38303;BME280;24103;42.454;27.400;2023-05-21T07:41:48;100115.19;;;42.03;16.76
38303;BME280;24103;42.454;27.400;2023-05-21T07:44:14;100120.00;;;39.71;18.22
38303;BME280;24103;42.454;27.400;2023-05-21T07:46:39;100134.09;;;36.10;22.14
38303;BME280;24103;42.454;27.400;2023-05-21T07:49:05;100153.38;;;34.26;24.60
38303;BME280;24103;42.454;27.400;2023-05-21T07:51:30;100151.56;;;32.91;26.36
38303;BME280;24103;42.454;27.400;2023-05-21T07:53:56;100143.06;;;32.47;27.24
38303;BME280;24103;42.454;27.400;2023-05-21T07:56:21;100165.50;;;31.37;28.74
38303;BME280;24103;42.454;27.400;2023-05-21T07:58:47;100184.59;;;30.09;30.60
38303;BME280;24103;42.454;27.400;2023-05-21T08:01:12;100179.50;;;30.38;30.19
38303;BME280;24103;42.454;27.400;2023-05-21T08:03:38;100171.53;;;30.85;30.21
38303;BME280;24103;42.454;27.400;2023-05-21T08:06:03;100190.38;;;30.20;30.65
38303;BME280;24103;42.454;27.400;2023-05-21T08:08:29;100202.44;;;29.62;31.95
38303;BME280;24103;42.454;27.400;2023-05-21T08:10:54;100209.88;;;29.22;32.42
38303;BME280;24103;42.454;27.400;2023-05-21T08:13:20;100217.28;;;29.02;33.00
38303;BME280;24103;42.454;27.400;2023-05-21T08:15:47;100207.69;;;28.47;33.35
38303;BME280;24103;42.454;27.400;2023-05-21T08:18:12;100227.06;;;27.79;34.68
38303;BME280;24103;42.454;27.400;2023-05-21T08:20:38;100230.81;;;27.45;35.53
38303;BME280;24103;42.454;27.400;2023-05-21T08:23:03;100229.38;;;26.80;36.56
38303;BME280;24103;42.454;27.400;2023-05-21T08:25:29;100237.41;;;26.60;36.82
38303;BME280;24103;42.454;27.400;2023-05-21T08:27:54;100239.59;;;26.08;38.08
38303;BME280;24103;42.454;27.400;2023-05-21T08:30:20;100234.91;;;26.59;38.03
38303;BME280;24103;42.454;27.400;2023-05-21T08:32:47;100233.59;;;26.90;36.90
38303;BME280;24103;42.454;27.400;2023-05-21T08:35:13;100243.25;;;27.19;37.47
38303;BME280;24103;42.454;27.400;2023-05-21T08:37:38;100223.63;;;27.10;37.41
38303;BME280;24103;42.454;27.400;2023-05-21T08:40:04;100246.16;;;26.62;37.74
38303;BME280;24103;42.454;27.400;2023-05-21T08:42:43;100239.22;;;26.46;38.33
38303;BME280;24103;42.454;27.400;2023-05-21T08:45:13;100239.78;;;26.70;38.19
38303;BME280;24103;42.454;27.400;2023-05-21T08:47:41;100233.41;;;26.56;38.49
38303;BME280;24103;42.454;27.400;2023-05-21T08:50:10;100238.44;;;27.08;38.12
38303;BME280;24103;42.454;27.400;2023-05-21T08:52:36;100240.41;;;27.47;37.51
38303;BME280;24103;42.454;27.400;2023-05-21T08:55:05;100242.94;;;27.75;37.20
38303;BME280;24103;42.454;27.400;2023-05-21T08:57:31;100234.97;;;27.87;36.42
38303;BME280;24103;42.454;27.400;2023-05-21T08:59:58;100242.28;;;28.13;36.50
38303;BME280;24103;42.454;27.400;2023-05-21T09:02:24;100237.88;;;28.12;36.34
38303;BME280;24103;42.454;27.400;2023-05-21T09:04:53;100240.03;;;27.97;36.14
38303;BME280;24103;42.454;27.400;2023-05-21T09:07:24;100248.34;;;28.09;36.49
38303;BME280;24103;42.454;27.400;2023-05-21T09:09:56;100240.50;;;28.66;36.27
38303;BME280;24103;42.454;27.400;2023-05-21T09:12:26;100244.22;;;29.10;35.75
38303;BME280;24103;42.454;27.400;2023-05-21T09:14:52;100249.53;;;28.98;35.45
38303;BME280;24103;42.454;27.400;2023-05-21T09:17:18;100254.22;;;29.23;35.89
38303;BME280;24103;42.454;27.400;2023-05-21T09:20:03;100255.91;;;28.72;35.81
38303;BME280;24103;42.454;27.400;2023-05-21T09:22:35;100248.44;;;28.54;35.50
38303;BME280;24103;42.454;27.400;2023-05-21T09:25:04;100248.59;;;28.79;35.43
38303;BME280;24103;42.454;27.400;2023-05-21T09:27:31;100244.69;;;28.55;35.07
38303;BME280;24103;42.454;27.400;2023-05-21T09:29:56;100255.22;;;28.31;36.38
38303;BME280;24103;42.454;27.400;2023-05-21T09:32:22;100251.69;;;27.44;37.42
38303;BME280;24103;42.454;27.400;2023-05-21T09:34:47;100259.81;;;27.31;38.34
38303;BME280;24103;42.454;27.400;2023-05-21T09:37:14;100262.53;;;27.44;38.25
38303;BME280;24103;42.454;27.400;2023-05-21T09:39:40;100260.44;;;27.33;38.58
38303;BME280;24103;42.454;27.400;2023-05-21T09:42:07;100261.50;;;26.83;38.61
38303;BME280;24103;42.454;27.400;2023-05-21T09:44:33;100263.06;;;26.29;40.03
38303;BME280;24103;42.454;27.400;2023-05-21T09:47:00;100257.81;;;25.93;41.33
38303;BME280;24103;42.454;27.400;2023-05-21T09:49:26;100266.34;;;25.68;41.80
38303;BME280;24103;42.454;27.400;2023-05-21T09:51:58;100268.22;;;24.88;43.50
38303;BME280;24103;42.454;27.400;2023-05-21T09:54:25;100269.78;;;24.38;45.79
38303;BME280;24103;42.454;27.400;2023-05-21T09:56:54;100280.41;;;24.39;46.89
38303;BME280;24103;42.454;27.400;2023-05-21T09:59:20;100272.81;;;24.05;47.45
38303;BME280;24103;42.454;27.400;2023-05-21T10:01:49;100277.50;;;24.11;49.53
38303;BME280;24103;42.454;27.400;2023-05-21T10:04:16;100264.94;;;24.33;48.13
38303;BME280;24103;42.454;27.400;2023-05-21T10:06:42;100271.09;;;24.42;48.29
38303;BME280;24103;42.454;27.400;2023-05-21T10:09:10;100278.84;;;24.60;48.30
38303;BME280;24103;42.454;27.400;2023-05-21T10:11:36;100275.09;;;24.31;49.20
38303;BME280;24103;42.454;27.400;2023-05-21T10:14:06;100280.53;;;23.93;50.16
38303;BME280;24103;42.454;27.400;2023-05-21T10:16:34;100304.34;;;23.66;52.22
38303;BME280;24103;42.454;27.400;2023-05-21T10:19:00;100286.94;;;23.23;55.31
38303;BME280;24103;42.454;27.400;2023-05-21T10:21:26;100297.31;;;23.34;60.17
38303;BME280;24103;42.454;27.400;2023-05-21T10:23:52;100303.00;;;23.08;60.24
38303;BME280;24103;42.454;27.400;2023-05-21T10:26:20;100299.41;;;22.84;61.21
38303;BME280;24103;42.454;27.400;2023-05-21T10:28:50;100302.94;;;22.85;64.81
38303;BME280;24103;42.454;27.400;2023-05-21T10:31:17;100296.84;;;22.91;64.66
38303;BME280;24103;42.454;27.400;2023-05-21T10:33:42;100300.38;;;22.91;65.03
38303;BME280;24103;42.454;27.400;2023-05-21T10:36:08;100289.72;;;22.98;66.17
38303;BME280;24103;42.454;27.400;2023-05-21T10:38:36;100304.88;;;22.99;63.39
38303;BME280;24103;42.454;27.400;2023-05-21T10:41:03;100302.63;;;22.79;64.84
38303;BME280;24103;42.454;27.400;2023-05-21T10:57:08;100301.16;;;22.69;63.96
38303;BME280;24103;42.454;27.400;2023-05-21T10:59:42;100302.31;;;22.74;63.11
38303;BME280;24103;42.454;27.400;2023-05-21T11:02:12;100308.16;;;22.78;63.63
38303;BME280;24103;42.454;27.400;2023-05-21T11:04:39;100298.13;;;22.63;64.45
38303;BME280;24103;42.454;27.400;2023-05-21T11:07:06;100306.44;;;22.54;63.39
38303;BME280;24103;42.454;27.400;2023-05-21T11:09:32;100280.88;;;22.33;64.69
38303;BME280;24103;42.454;27.400;2023-05-21T11:11:59;100297.16;;;22.48;66.01
38303;BME280;24103;42.454;27.400;2023-05-21T11:16:52;100291.66;;;22.08;66.71
38303;BME280;24103;42.454;27.400;2023-05-21T11:21:49;100304.78;;;21.95;70.82
38303;BME280;24103;42.454;27.400;2023-05-21T11:24:18;100298.75;;;22.09;71.45
38303;BME280;24103;42.454;27.400;2023-05-21T11:29:13;100303.25;;;22.25;75.35
38303;BME280;24103;42.454;27.400;2023-05-21T11:31:44;100302.06;;;22.44;72.68
38303;BME280;24103;42.454;27.400;2023-05-21T11:36:45;100307.13;;;22.39;73.14
38303;BME280;24103;42.454;27.400;2023-05-21T11:39:16;100317.88;;;22.48;72.10
38303;BME280;24103;42.454;27.400;2023-05-21T11:42:00;100307.13;;;22.39;71.68
38303;BME280;24103;42.454;27.400;2023-05-21T11:44:46;100313.34;;;22.40;71.69
38303;BME280;24103;42.454;27.400;2023-05-21T11:47:13;100316.72;;;22.34;76.21
38303;BME280;24103;42.454;27.400;2023-05-21T11:49:39;100313.69;;;22.29;73.85
38303;BME280;24103;42.454;27.400;2023-05-21T11:52:06;100307.13;;;22.23;75.81
38303;BME280;24103;42.454;27.400;2023-05-21T11:54:33;100307.59;;;22.51;71.35
38303;BME280;24103;42.454;27.400;2023-05-21T11:57:10;100304.69;;;22.69;70.96
38303;BME280;24103;42.454;27.400;2023-05-21T11:59:35;100289.16;;;22.79;67.36
38303;BME280;24103;42.454;27.400;2023-05-21T12:02:02;100292.47;;;22.90;67.67
38303;BME280;24103;42.454;27.400;2023-05-21T12:04:31;100296.13;;;22.66;69.34
38303;BME280;24103;42.454;27.400;2023-05-21T12:07:04;100294.28;;;22.58;72.27
38303;BME280;24103;42.454;27.400;2023-05-21T12:09:47;100284.94;;;22.85;70.15
38303;BME280;24103;42.454;27.400;2023-05-21T12:12:18;100271.16;;;23.11;68.10
38303;BME280;24103;42.454;27.400;2023-05-21T12:14:46;100279.66;;;23.31;63.76
38303;BME280;24103;42.454;27.400;2023-05-21T12:17:16;100267.53;;;23.50;65.58
38303;BME280;24103;42.454;27.400;2023-05-21T12:19:42;100269.53;;;23.33;64.51
38303;BME280;24103;42.454;27.400;2023-05-21T12:22:08;100275.81;;;23.49;64.94
38303;BME280;24103;42.454;27.400;2023-05-21T12:24:35;100281.25;;;23.87;64.18
38303;BME280;24103;42.454;27.400;2023-05-21T12:27:04;100276.94;;;23.78;61.60
38303;BME280;24103;42.454;27.400;2023-05-21T12:29:36;100278.31;;;23.73;61.96
38303;BME280;24103;42.454;27.400;2023-05-21T12:32:03;100269.28;;;23.66;61.71
38303;BME280;24103;42.454;27.400;2023-05-21T12:37:20;100282.53;;;24.14;58.54
38303;BME280;24103;42.454;27.400;2023-05-21T12:39:50;100277.47;;;23.73;59.56
38303;BME280;24103;42.454;27.400;2023-05-21T12:42:23;100275.22;;;23.62;61.95
38303;BME280;24103;42.454;27.400;2023-05-21T12:44:51;100276.31;;;23.67;66.65
38303;BME280;24103;42.454;27.400;2023-05-21T12:47:17;100291.97;;;23.95;64.00
38303;BME280;24103;42.454;27.400;2023-05-21T13:30:57;100262.56;;;25.41;55.63
38303;BME280;24103;42.454;27.400;2023-05-21T13:33:23;100260.22;;;25.16;56.74
38303;BME280;24103;42.454;27.400;2023-05-21T13:35:48;100258.16;;;24.67;57.18
38303;BME280;24103;42.454;27.400;2023-05-21T13:38:15;100252.09;;;24.80;55.29
38303;BME280;24103;42.454;27.400;2023-05-21T13:40:41;100246.69;;;24.35;55.65
38303;BME280;24103;42.454;27.400;2023-05-21T13:43:06;100240.53;;;24.26;55.81
38303;BME280;24103;42.454;27.400;2023-05-21T13:45:32;100243.88;;;24.43;56.99
38303;BME280;24103;42.454;27.400;2023-05-21T13:47:58;100245.84;;;24.50;57.26